Terminal Aerodrome Forecast
Issued by NWS

Home | Current Version | Previous Version | Text Only | Print | Product List | Glossary On
Versions: 1 2 3 4 5 6 7 8 9 10 11 12 13 14 15 16 17 18 19 20 21 22 23 24 25 26 27
000
FTUS41 KBOX 311140
TAFBED
TAF
KBED 311140Z 3112/0112 31016G29KT 3SM -SN OVC030
     FM311400 31016G34KT P6SM BKN040
     FM311600 31017G35KT P6SM SCT060
     FM312300 31014G24KT P6SM SKC
     FM010300 30011KT P6SM SKC
     FM010800 28007KT P6SM FEW250=

USA.gov is the U.S. government's official web portal to all federal, state and local government web resources and services.